Alledonia, OH (43902)

3:17 PM EDT on August 23, 2014 (GMT -0400)
Jerusalem | Change Station
CLOSE
Current Station
Personal Weather Station
Location: Jerusalem, OH
Elevation: 1253 ft
Nearby Weather Stations

Elev 1253 ft 39.86 °N, 81.11 °W | Updated 3 seconds ago

Scattered Clouds
Scattered Clouds
82.4 °F
Feels Like 86 °F
N
3.1
Wind Variable Wind from WNW
Gusts 3.1 mph

Today
High -- | Low -- °F
--% Chance of Precip.
Yesterday
High -- | Low -- °F
Precip. -- in
6:43 AM 8:09 PM
Waning Crescent, 3% visible
Pressure 30.01 in
Visibility 10.0 miles
Clouds Few 3500 ft
Scattered Clouds 4600 ft
Heat Index 86 °F
Dew Point 69 °F
Humidity 65%
Rainfall 0.00 in
Snow Depth Not available.
UV 7 out of 12
Pollen 10.00 out of 12
Air Quality Not available.
Flu Activity Not available.
METAR KHLG 231853Z 34006KT 10SM FEW035 SCT046 27/18 A3003 RMK AO2 SLP162 T02720183

More Conditions Fewer Conditions

Pressure 30.01 in
Visibility 10.0 miles
Clouds Few 3500 ft
Scattered Clouds 4600 ft
Heat Index 86 °F
Dew Point 69 °F
Humidity 65%
Rainfall 0.00 in
Snow Depth Not available.
UV 7 out of 12
Pollen 10.00 out of 12
Air Quality Not available.
Flu Activity Not available.
METAR KHLG 231853Z 34006KT 10SM FEW035 SCT046 27/18 A3003 RMK AO2 SLP162 T02720183

More Conditions Fewer Conditions

10-Day Weather Forecast

Almanac

Astronomy

Aug. 23, 2014 Rise Set
Actual Time 6:43 AM EDT 8:09 PM EDT
Civil Twilight 6:15 AM EDT 8:37 PM EDT
Nautical Twilight 5:40 AM EDT 9:11 PM EDT
Astronomical Twilight 5:05 AM EDT 9:47 PM EDT
Moon 4:58 AM EDT 6:52 PM EDT
Length of Visible Light 14h 22m
Length of Day
13h 25m
Tomorrow will be 2m 26s shorter.
Waning Crescent, 3% of the Moon is Illuminated
Today
Waning Crescent
Aug 25
New
Sep 2
First Quarter
Sep 8
Full
Sep 15
Last Quarter

Today's Extremes

State Highs State Lows

Community

WunderPhotos

Upload Photos

1,746,585 photos uploaded!

WunderBlogs® & News

Nearby

Snow Depth

Station Depth Elevation
No new snow has been reported.

Earthquake Activity

City Distance Mag. Time & Date
No recent earthquake activity has been reported nearby.
Minimum magnitude displayed is 2.5.

Coastal Water Temperatures

Place Temperature
No Stations Reporting

Nearby Weather Stations